createdAt,value
2023-04-11T00:01:27.324Z,47.77
2023-04-11T00:03:55.923Z,48.12
2023-04-11T00:06:26.964Z,48.87
2023-04-11T00:08:55.591Z,48.96
2023-04-11T00:11:24.209Z,49.98
2023-04-11T00:13:52.605Z,49.16
2023-04-11T00:16:21.425Z,49.36
2023-04-11T00:18:49.736Z,49.68
2023-04-11T00:21:18.332Z,49.41
2023-04-11T00:23:46.762Z,49.15
2023-04-11T00:26:15.082Z,49.21
2023-04-11T00:28:43.528Z,49.86
2023-04-11T00:31:13.292Z,49.52
2023-04-11T00:33:41.652Z,49.72
2023-04-11T00:36:10.524Z,49.69
2023-04-11T00:38:39.144Z,50.17
2023-04-11T00:41:07.693Z,50.22
2023-04-11T00:43:36.015Z,50.05
2023-04-11T00:46:05.600Z,50.00
2023-04-11T00:48:34.074Z,50.12
2023-04-11T00:51:02.778Z,49.93
2023-04-11T00:53:33.703Z,50.21
2023-04-11T00:56:02.085Z,50.44
2023-04-11T00:58:30.488Z,50.47
2023-04-11T01:00:58.739Z,50.83
2023-04-11T01:03:27.414Z,50.83
2023-04-11T01:05:56.437Z,51.64
2023-04-11T01:08:25.709Z,52.15
2023-04-11T01:10:54.250Z,52.76
2023-04-11T01:13:22.740Z,52.89
2023-04-11T01:15:51.129Z,53.71
2023-04-11T01:18:19.595Z,53.67
2023-04-11T01:20:48.216Z,53.47
2023-04-11T01:23:22.936Z,54.34
2023-04-11T01:25:51.859Z,54.17
2023-04-11T01:28:23.460Z,54.31
2023-04-11T01:30:52.037Z,54.91
2023-04-11T01:33:20.728Z,54.26
2023-04-11T01:35:49.319Z,54.88
2023-04-11T01:38:17.782Z,54.74
2023-04-11T01:40:47.345Z,54.96
2023-04-11T01:43:15.743Z,55.47
2023-04-11T01:45:44.024Z,55.51
2023-04-11T01:48:12.636Z,56.65
2023-04-11T01:50:40.953Z,55.96
2023-04-11T01:53:09.449Z,56.34
2023-04-11T01:55:37.799Z,56.05
2023-04-11T01:58:06.129Z,57.12
2023-04-11T02:00:34.510Z,57.05
2023-04-11T02:03:02.900Z,57.06
2023-04-11T02:05:31.346Z,57.52
2023-04-11T02:07:59.711Z,57.39
2023-04-11T02:10:28.028Z,57.75
2023-04-11T02:12:56.272Z,57.96
2023-04-11T02:15:24.728Z,58.66
2023-04-11T02:17:54.776Z,58.84
2023-04-11T02:20:24.054Z,58.65
2023-04-11T02:22:52.335Z,59.08
2023-04-11T02:25:20.716Z,58.64
2023-04-11T02:27:49.001Z,59.21
2023-04-11T02:30:17.280Z,59.93
2023-04-11T02:32:47.601Z,60.14
2023-04-11T02:35:16.468Z,60.78
2023-04-11T02:37:45.241Z,60.47
2023-04-11T02:40:13.672Z,60.22
2023-04-11T02:42:43.936Z,60.19
2023-04-11T02:45:12.746Z,60.26
2023-04-11T02:47:41.366Z,60.69
2023-04-11T02:50:10.299Z,60.63
2023-04-11T02:52:42.979Z,62.26
2023-04-11T02:55:11.457Z,61.83
2023-04-11T02:57:40.197Z,62.00
2023-04-11T03:00:09.911Z,62.39
2023-04-11T03:02:38.412Z,62.82
2023-04-11T03:05:07.296Z,62.05
2023-04-11T03:07:35.689Z,62.44
2023-04-11T03:10:03.950Z,62.65
2023-04-11T03:12:32.237Z,62.87
2023-04-11T03:15:00.521Z,63.60
2023-04-11T03:17:28.822Z,64.11
2023-04-11T03:19:57.090Z,63.24
2023-04-11T03:22:25.584Z,63.58
2023-04-11T03:24:53.853Z,63.89
2023-04-11T03:27:22.088Z,63.47
2023-04-11T03:29:50.364Z,64.48
2023-04-11T03:32:18.648Z,64.22
2023-04-11T03:34:47.357Z,64.07
2023-04-11T03:37:15.628Z,64.02
2023-04-11T03:39:43.880Z,63.97
2023-04-11T03:42:13.539Z,64.35
2023-04-11T03:44:41.877Z,64.43
2023-04-11T03:47:10.165Z,64.85
2023-04-11T03:49:38.441Z,64.50
2023-04-11T03:52:08.466Z,64.50
2023-04-11T03:54:38.442Z,65.01
2023-04-11T03:57:06.708Z,64.85
2023-04-11T03:59:34.935Z,65.13
2023-04-11T04:02:03.284Z,64.80
2023-04-11T04:04:33.195Z,64.91
2023-04-11T04:07:02.576Z,64.74
2023-04-11T04:09:30.893Z,64.70
2023-04-11T04:11:59.156Z,64.93
2023-04-11T04:14:27.842Z,64.74
2023-04-11T04:16:56.153Z,65.11
2023-04-11T04:19:24.483Z,65.15
2023-04-11T04:21:52.732Z,65.35
2023-04-11T04:24:20.991Z,65.50
2023-04-11T04:26:50.898Z,65.30
2023-04-11T04:29:19.339Z,65.35
2023-04-11T04:31:51.449Z,65.18
2023-04-11T04:34:22.582Z,65.20
2023-04-11T04:36:50.852Z,64.86
2023-04-11T04:39:20.342Z,64.85
2023-04-11T04:41:49.949Z,64.91
2023-04-11T04:44:18.335Z,64.94
2023-04-11T04:46:46.659Z,65.22
2023-04-11T04:49:14.979Z,65.08
2023-04-11T04:51:43.292Z,64.87
2023-04-11T04:54:11.557Z,64.86
2023-04-11T04:56:39.898Z,64.90
2023-04-11T04:59:08.950Z,64.86
2023-04-11T05:01:40.709Z,64.86
2023-04-11T05:04:09.329Z,64.52
2023-04-11T05:06:37.799Z,64.53
2023-04-11T05:09:07.043Z,64.29
2023-04-11T05:11:35.453Z,64.27
2023-04-11T05:14:03.750Z,64.09
2023-04-11T05:16:32.545Z,63.90
2023-04-11T05:19:00.894Z,63.92
2023-04-11T05:21:29.408Z,63.85
2023-04-11T05:23:57.853Z,63.57
2023-04-11T05:26:26.519Z,63.57
2023-04-11T05:28:54.782Z,63.53
2023-04-11T05:31:23.066Z,63.47
2023-04-11T05:33:51.356Z,63.69
2023-04-11T05:36:19.813Z,63.56
2023-04-11T05:38:48.416Z,63.40
2023-04-11T05:41:16.746Z,63.56
2023-04-11T05:43:45.073Z,63.46
2023-04-11T05:46:13.738Z,63.66
2023-04-11T05:48:42.393Z,64.09
2023-04-11T05:51:10.695Z,63.98
2023-04-11T05:53:38.936Z,64.24
2023-04-11T05:56:07.648Z,64.06
2023-04-11T05:58:37.849Z,64.66
2023-04-11T06:01:08.149Z,64.56
2023-04-11T06:03:36.682Z,64.34
2023-04-11T06:06:05.214Z,64.46
2023-04-11T06:08:33.585Z,64.58
2023-04-11T06:11:01.837Z,64.47
2023-04-11T06:13:30.171Z,64.70
2023-04-11T06:15:58.559Z,64.44
2023-04-11T06:18:26.972Z,64.90
2023-04-11T06:20:56.179Z,64.45
2023-04-11T06:23:24.566Z,64.77
2023-04-11T06:25:53.233Z,64.83
2023-04-11T06:28:21.590Z,64.83
2023-04-11T06:30:49.915Z,65.42
2023-04-11T06:33:18.125Z,65.03
2023-04-11T06:35:46.500Z,65.40
2023-04-11T06:38:14.821Z,65.38
2023-04-11T06:40:43.122Z,65.64
2023-04-11T06:43:11.651Z,65.66
2023-04-11T06:45:39.858Z,65.94
2023-04-11T06:48:08.178Z,65.98
2023-04-11T06:50:42.632Z,65.79
2023-04-11T06:53:11.705Z,65.97
2023-04-11T06:55:39.920Z,65.78
2023-04-11T06:58:08.128Z,65.46
2023-04-11T07:00:37.029Z,65.75
2023-04-11T07:03:09.198Z,65.83
2023-04-11T07:05:39.459Z,65.83
2023-04-11T07:08:07.924Z,65.72
2023-04-11T07:10:36.125Z,65.81
2023-04-11T07:13:04.330Z,65.80
2023-04-11T07:15:32.530Z,65.87
2023-04-11T07:18:00.860Z,65.88
2023-04-11T07:20:29.265Z,66.02
2023-04-11T07:22:58.084Z,65.95
2023-04-11T07:25:34.523Z,65.79
2023-04-11T07:28:03.274Z,65.85
2023-04-11T07:30:31.499Z,65.67
2023-04-11T07:32:59.780Z,65.84
2023-04-11T07:35:29.334Z,65.94
2023-04-11T07:37:59.347Z,66.05
2023-04-11T07:40:28.012Z,65.86
2023-04-11T07:42:56.204Z,66.16
2023-04-11T07:45:24.537Z,66.12
2023-04-11T07:47:52.797Z,66.23
2023-04-11T07:50:21.158Z,66.20
2023-04-11T07:52:49.369Z,66.31
2023-04-11T07:55:17.823Z,66.21
2023-04-11T07:57:46.568Z,66.05
2023-04-11T08:00:24.771Z,66.00
2023-04-11T08:02:53.421Z,65.61
2023-04-11T08:05:22.126Z,65.94
2023-04-11T08:07:50.347Z,65.65
2023-04-11T08:10:18.777Z,65.54
2023-04-11T08:12:47.152Z,65.61
2023-04-11T08:15:15.456Z,65.50
2023-04-11T08:17:44.566Z,65.83
2023-04-11T08:20:14.800Z,65.60
2023-04-11T08:22:45.603Z,65.72
2023-04-11T08:25:15.508Z,65.80
2023-04-11T08:27:44.062Z,65.59
2023-04-11T08:30:12.657Z,65.55
2023-04-11T08:32:42.023Z,65.64
2023-04-11T08:35:11.135Z,65.46
2023-04-11T08:37:40.761Z,65.50
2023-04-11T08:40:10.817Z,65.74
2023-04-11T08:42:39.020Z,65.41
2023-04-11T08:45:09.458Z,65.31
2023-04-11T08:47:38.870Z,65.23
2023-04-11T08:50:08.017Z,64.99
2023-04-11T08:52:39.351Z,65.07
2023-04-11T08:55:07.864Z,65.09
2023-04-11T08:57:38.966Z,65.19
2023-04-11T09:00:15.407Z,65.00
2023-04-11T09:03:04.197Z,64.95
2023-04-11T09:05:33.547Z,64.81
2023-04-11T09:08:07.584Z,64.62
2023-04-11T09:10:36.843Z,64.91
2023-04-11T09:13:26.885Z,64.62
2023-04-11T09:16:13.164Z,64.50
2023-04-11T09:18:46.347Z,64.36
2023-04-11T09:21:16.845Z,64.20
2023-04-11T09:23:45.672Z,64.12
2023-04-11T09:26:26.029Z,64.19
2023-04-11T09:28:54.447Z,63.89
2023-04-11T09:31:40.502Z,63.92
2023-04-11T09:34:09.052Z,64.16
2023-04-11T09:36:37.252Z,64.11
2023-04-11T09:39:20.919Z,63.97
2023-04-11T09:41:49.327Z,63.94
2023-04-11T09:44:17.535Z,63.76
2023-04-11T09:46:58.942Z,63.90
2023-04-11T09:49:27.355Z,63.87
2023-04-11T09:51:57.186Z,64.10
2023-04-11T09:54:28.258Z,63.98
2023-04-11T09:56:58.206Z,64.00
2023-04-11T09:59:28.613Z,63.85
2023-04-11T10:01:58.790Z,63.94
2023-04-11T10:04:28.865Z,64.11
2023-04-11T10:07:19.287Z,63.76
2023-04-11T10:09:48.761Z,63.93
2023-04-11T10:12:34.820Z,64.08
2023-04-11T10:15:09.567Z,64.13
2023-04-11T10:17:38.096Z,64.23
2023-04-11T10:20:44.222Z,64.15
2023-04-11T10:23:13.457Z,64.28
2023-04-11T10:26:02.095Z,64.40
2023-04-11T10:28:41.072Z,64.29
2023-04-11T10:31:13.993Z,64.39
2023-04-11T10:34:17.750Z,64.41
2023-04-11T10:37:08.529Z,64.45
2023-04-11T10:39:54.872Z,64.43
2023-04-11T10:42:32.998Z,64.60
2023-04-11T10:45:23.015Z,64.61
2023-04-11T10:48:13.911Z,64.70
2023-04-11T10:50:44.744Z,64.42
2023-04-11T10:53:37.753Z,64.50
2023-04-11T10:56:06.484Z,64.72
2023-04-11T10:58:40.437Z,64.67
2023-04-11T11:01:26.506Z,64.81
2023-04-11T11:04:06.134Z,64.57
2023-04-11T11:06:46.084Z,64.61
2023-04-11T11:09:24.539Z,64.55
2023-04-11T11:12:12.500Z,64.74
2023-04-11T11:14:46.401Z,64.87
2023-04-11T11:17:16.213Z,65.00
2023-04-11T11:19:48.940Z,65.02
2023-04-11T11:22:26.750Z,65.09
2023-04-11T11:24:54.978Z,65.29
2023-04-11T11:27:25.124Z,65.32
2023-04-11T11:29:54.067Z,65.08
2023-04-11T11:32:33.597Z,65.07
2023-04-11T11:35:13.138Z,65.34
2023-04-11T11:37:41.677Z,65.31
2023-04-11T11:40:14.691Z,65.40
2023-04-11T11:42:43.330Z,65.34
2023-04-11T11:45:22.696Z,65.56
2023-04-11T11:47:51.662Z,65.70
2023-04-11T11:50:45.888Z,65.57
2023-04-11T11:53:16.794Z,65.69
2023-04-11T11:55:45.201Z,66.08
2023-04-11T11:58:13.436Z,65.62
2023-04-11T12:00:42.568Z,65.81
2023-04-11T12:03:11.643Z,65.73
2023-04-11T12:05:39.980Z,65.43
2023-04-11T12:08:08.645Z,65.51
2023-04-11T12:10:46.769Z,65.71
2023-04-11T12:13:20.805Z,65.58
2023-04-11T12:15:57.060Z,65.89
2023-04-11T12:18:26.382Z,65.98
2023-04-11T12:20:54.726Z,66.06
2023-04-11T12:23:23.657Z,65.75
2023-04-11T12:25:51.914Z,65.87
2023-04-11T12:28:20.125Z,65.93
2023-04-11T12:30:49.534Z,65.85
2023-04-11T12:33:17.936Z,66.00
2023-04-11T12:35:46.864Z,66.01
2023-04-11T12:38:17.562Z,65.94
2023-04-11T12:40:47.790Z,66.05
2023-04-11T12:43:16.354Z,66.10
2023-04-11T12:45:44.598Z,66.01
2023-04-11T12:48:12.856Z,66.22
2023-04-11T12:50:41.768Z,66.39
2023-04-11T12:53:10.023Z,66.78
2023-04-11T12:55:38.728Z,66.88
2023-04-11T12:58:09.029Z,66.85
2023-04-11T13:00:37.228Z,67.16
2023-04-11T13:03:05.718Z,66.98
2023-04-11T13:05:34.209Z,67.14
2023-04-11T13:08:02.567Z,67.40
2023-04-11T13:10:30.777Z,67.31
2023-04-11T13:13:08.487Z,67.20
2023-04-11T13:15:45.454Z,67.37
2023-04-11T13:18:13.802Z,67.46
2023-04-11T13:20:43.496Z,67.51
2023-04-11T13:23:11.719Z,66.94
2023-04-11T13:25:39.919Z,67.24
2023-04-11T13:28:08.327Z,67.28
2023-04-11T13:30:36.534Z,67.06
2023-04-11T13:33:04.969Z,67.20
2023-04-11T13:35:33.190Z,67.17
2023-04-11T13:38:01.695Z,67.33
2023-04-11T13:40:29.939Z,67.11
2023-04-11T13:42:58.164Z,67.00
2023-04-11T13:45:26.425Z,67.30
2023-04-11T13:47:54.680Z,67.06
2023-04-11T13:50:22.898Z,67.14
2023-04-11T13:52:51.727Z,67.14
2023-04-11T13:55:20.090Z,66.93
2023-04-11T13:57:48.519Z,67.21
2023-04-11T14:00:17.211Z,67.27
2023-04-11T14:02:45.673Z,67.04
2023-04-11T14:05:14.050Z,67.07
2023-04-11T14:07:42.572Z,67.21
2023-04-11T14:10:11.170Z,67.24
2023-04-11T14:12:39.626Z,67.29
2023-04-11T14:15:08.750Z,67.17
2023-04-11T14:17:37.221Z,67.10
2023-04-11T14:20:07.771Z,67.04
2023-04-11T14:22:36.748Z,67.31
2023-04-11T14:25:06.338Z,67.18
2023-04-11T14:27:34.528Z,66.81
2023-04-11T14:30:02.896Z,67.02
2023-04-11T14:32:31.103Z,66.84
2023-04-11T14:35:02.360Z,66.80
2023-04-11T14:37:31.126Z,66.78
2023-04-11T14:39:59.479Z,66.72
2023-04-11T14:42:27.822Z,66.58
2023-04-11T14:44:56.053Z,66.35
2023-04-11T14:47:24.353Z,66.29
2023-04-11T14:49:52.554Z,66.32
2023-04-11T14:52:20.866Z,66.38
2023-04-11T14:54:49.648Z,66.20
2023-04-11T14:57:18.080Z,66.29
2023-04-11T14:59:46.694Z,66.11
2023-04-11T15:02:15.072Z,66.04
2023-04-11T15:04:43.375Z,65.72
2023-04-11T15:07:11.603Z,65.84
2023-04-11T15:09:39.824Z,65.79
2023-04-11T15:12:08.073Z,65.75
2023-04-11T15:14:36.259Z,65.81
2023-04-11T15:17:04.468Z,65.96
2023-04-11T15:19:32.657Z,66.03
2023-04-11T15:22:00.921Z,65.88
2023-04-11T15:24:29.232Z,65.89
2023-04-11T15:26:57.692Z,65.88
2023-04-11T15:29:26.404Z,65.71
2023-04-11T15:31:54.590Z,65.91
2023-04-11T15:34:24.202Z,65.95
2023-04-11T15:36:52.484Z,65.71
2023-04-11T15:39:20.752Z,65.88
2023-04-11T15:41:48.966Z,65.97
2023-04-11T15:44:17.302Z,65.99
2023-04-11T15:46:48.516Z,66.54
2023-04-11T15:49:17.634Z,66.63
2023-04-11T15:51:47.546Z,66.67
2023-04-11T15:54:15.768Z,66.76
2023-04-11T15:56:43.993Z,66.81
2023-04-11T15:59:12.373Z,67.23
2023-04-11T16:01:41.099Z,67.25
2023-04-11T16:04:10.094Z,67.37
2023-04-11T16:06:38.774Z,67.42
2023-04-11T16:09:06.984Z,67.19
2023-04-11T16:11:35.258Z,67.05
2023-04-11T16:14:03.499Z,66.95
2023-04-11T16:16:32.036Z,67.06
2023-04-11T16:19:00.685Z,67.17
2023-04-11T16:21:28.864Z,66.91
2023-04-11T16:23:57.503Z,66.84
2023-04-11T16:26:25.951Z,66.81
2023-04-11T16:28:54.331Z,66.79
2023-04-11T16:31:25.499Z,66.63
2023-04-11T16:33:55.169Z,66.59
2023-04-11T16:36:24.063Z,66.65
2023-04-11T16:38:52.492Z,66.43
2023-04-11T16:41:20.740Z,66.66
2023-04-11T16:43:49.006Z,66.69
2023-04-11T16:46:17.445Z,66.64
2023-04-11T16:48:46.061Z,66.72
2023-04-11T16:51:14.510Z,66.38
2023-04-11T16:53:42.781Z,66.43
2023-04-11T16:56:11.452Z,66.44
2023-04-11T16:58:39.787Z,66.39
2023-04-11T17:01:08.205Z,66.15
2023-04-11T17:03:36.665Z,66.15
2023-04-11T17:06:05.340Z,66.12
2023-04-11T17:08:33.584Z,66.07
2023-04-11T17:11:09.949Z,66.00
2023-04-11T17:13:42.912Z,66.42
2023-04-11T17:16:11.313Z,66.54
2023-04-11T17:18:39.680Z,66.44
2023-04-11T17:21:08.297Z,66.56
2023-04-11T17:23:43.154Z,66.85
2023-04-11T17:26:12.553Z,66.87
2023-04-11T17:28:41.871Z,66.82
2023-04-11T17:31:14.527Z,66.85
2023-04-11T17:33:43.564Z,66.58
2023-04-11T17:36:14.595Z,66.48
2023-04-11T17:38:46.419Z,66.35
2023-04-11T17:41:15.651Z,65.94
2023-04-11T17:43:44.996Z,65.96
2023-04-11T17:46:14.501Z,65.97
2023-04-11T17:48:43.008Z,65.72
2023-04-11T17:51:11.324Z,65.42
2023-04-11T17:53:39.656Z,64.75
2023-04-11T17:56:08.509Z,64.60
2023-04-11T17:58:36.849Z,64.17
2023-04-11T18:01:10.342Z,63.68
2023-04-11T18:03:40.500Z,63.43
2023-04-11T18:06:09.340Z,62.64
2023-04-11T18:08:50.546Z,62.68
2023-04-11T18:11:20.147Z,62.56
2023-04-11T18:13:50.271Z,62.54
2023-04-11T18:16:19.315Z,61.92
2023-04-11T18:18:49.350Z,62.17
2023-04-11T18:21:18.422Z,61.55
2023-04-11T18:23:46.822Z,61.06
2023-04-11T18:26:15.071Z,60.80
2023-04-11T18:28:43.319Z,60.87
2023-04-11T18:31:12.479Z,59.92
2023-04-11T18:33:44.036Z,60.72
2023-04-11T18:36:28.156Z,60.61
2023-04-11T18:38:56.847Z,60.62
2023-04-11T18:41:26.108Z,60.64
2023-04-11T18:43:54.462Z,60.13
2023-04-11T18:46:22.800Z,59.90
2023-04-11T18:48:51.309Z,60.11
2023-04-11T18:51:20.982Z,59.28
2023-04-11T18:53:49.994Z,59.21
2023-04-11T18:56:18.453Z,59.00
2023-04-11T18:58:50.074Z,58.68
2023-04-11T19:01:22.752Z,58.79
2023-04-11T19:03:51.951Z,58.40
2023-04-11T19:06:20.444Z,58.16
2023-04-11T19:08:49.138Z,57.66
2023-04-11T19:11:17.528Z,57.60
2023-04-11T19:13:45.728Z,57.77
2023-04-11T19:16:14.285Z,57.38
2023-04-11T19:18:42.548Z,57.82
2023-04-11T19:21:10.970Z,57.49
2023-04-11T19:23:39.548Z,57.84
2023-04-11T19:26:08.332Z,57.79
2023-04-11T19:28:37.116Z,57.75
2023-04-11T19:31:05.599Z,58.03
2023-04-11T19:33:34.058Z,57.47
2023-04-11T19:36:02.699Z,57.50
2023-04-11T19:38:31.371Z,57.08
2023-04-11T19:41:10.140Z,57.00
2023-04-11T19:43:38.647Z,56.66
2023-04-11T19:46:10.404Z,56.72
2023-04-11T19:48:41.136Z,56.46
2023-04-11T19:51:10.334Z,56.40
2023-04-11T19:53:39.809Z,55.58
2023-04-11T19:56:11.726Z,55.73
2023-04-11T19:58:40.878Z,55.98
2023-04-11T20:01:10.526Z,56.10
2023-04-11T20:03:39.032Z,55.10
2023-04-11T20:06:08.350Z,55.48
2023-04-11T20:08:38.967Z,55.21
2023-04-11T20:11:07.366Z,55.39
2023-04-11T20:13:36.836Z,54.62
2023-04-11T20:16:09.406Z,54.25
2023-04-11T20:18:37.704Z,54.43
2023-04-11T20:21:08.433Z,54.08
2023-04-11T20:23:37.930Z,53.31
2023-04-11T20:26:06.437Z,53.38
2023-04-11T20:28:34.660Z,53.45
2023-04-11T20:31:05.085Z,53.19
2023-04-11T20:33:33.418Z,52.74
2023-04-11T20:36:03.648Z,52.26
2023-04-11T20:38:32.227Z,52.50
2023-04-11T20:41:04.481Z,52.34
2023-04-11T20:43:32.966Z,51.78
2023-04-11T20:46:01.226Z,50.39
2023-04-11T20:48:30.590Z,50.52
2023-04-11T20:51:02.610Z,49.79
2023-04-11T20:53:30.963Z,49.83
2023-04-11T20:55:59.468Z,49.84
2023-04-11T20:58:28.442Z,49.17
2023-04-11T21:00:56.829Z,48.68
2023-04-11T21:03:25.213Z,48.45
2023-04-11T21:05:53.523Z,47.80
2023-04-11T21:08:21.727Z,45.39
2023-04-11T21:10:49.942Z,45.93
2023-04-11T21:13:18.189Z,46.47
2023-04-11T21:15:46.565Z,45.45
2023-04-11T21:18:14.926Z,45.61
2023-04-11T21:20:43.198Z,45.93
2023-04-11T21:23:11.518Z,45.90
2023-04-11T21:25:39.748Z,44.84
2023-04-11T21:28:08.080Z,46.11
2023-04-11T21:30:36.549Z,45.35
2023-04-11T21:33:04.840Z,44.98
2023-04-11T21:35:33.170Z,44.97
2023-04-11T21:38:01.696Z,44.41
2023-04-11T21:40:29.971Z,45.24
2023-04-11T21:42:58.281Z,45.70
2023-04-11T21:45:26.714Z,43.98
2023-04-11T21:47:55.006Z,44.84
2023-04-11T21:50:23.401Z,44.72
2023-04-11T21:52:53.351Z,44.18
2023-04-11T21:55:21.923Z,44.21
2023-04-11T21:57:50.161Z,43.35
2023-04-11T22:00:19.065Z,43.24
2023-04-11T22:02:47.632Z,43.34
2023-04-11T22:05:18.337Z,43.28
2023-04-11T22:07:49.503Z,43.04
2023-04-11T22:10:24.039Z,43.02
2023-04-11T22:12:55.185Z,42.51
2023-04-11T22:15:24.883Z,42.29
2023-04-11T22:17:55.176Z,43.10
2023-04-11T22:20:23.432Z,43.03
2023-04-11T22:22:51.637Z,42.75
2023-04-11T22:25:23.147Z,42.79
2023-04-11T22:27:55.066Z,41.44
2023-04-11T22:30:24.434Z,41.68
2023-04-11T22:32:54.847Z,41.71
2023-04-11T22:35:26.716Z,42.25
2023-04-11T22:38:00.006Z,42.41
2023-04-11T22:40:28.362Z,42.04
2023-04-11T22:42:56.663Z,41.67
2023-04-11T22:45:25.141Z,41.12
2023-04-11T22:47:55.168Z,40.96
2023-04-11T22:50:23.520Z,41.10
2023-04-11T22:52:51.816Z,40.94
2023-04-11T22:55:20.910Z,40.62
2023-04-11T22:57:49.442Z,40.74
2023-04-11T23:00:19.998Z,40.75
2023-04-11T23:02:48.636Z,41.10
2023-04-11T23:05:17.717Z,39.99
2023-04-11T23:07:46.397Z,39.89
2023-04-11T23:10:18.158Z,40.49
2023-04-11T23:12:46.631Z,40.19
2023-04-11T23:15:16.283Z,39.49
2023-04-11T23:17:44.672Z,40.05
2023-04-11T23:20:13.996Z,40.32
2023-04-11T23:22:44.622Z,39.57
2023-04-11T23:25:15.943Z,39.75
2023-04-11T23:27:45.805Z,39.90
2023-04-11T23:30:15.212Z,39.43
2023-04-11T23:32:43.825Z,39.90
2023-04-11T23:35:12.664Z,39.58
2023-04-11T23:37:41.740Z,39.88
2023-04-11T23:40:14.637Z,39.73
2023-04-11T23:42:43.275Z,37.99
2023-04-11T23:45:12.633Z,39.03
2023-04-11T23:47:40.982Z,39.53
2023-04-11T23:50:10.250Z,39.29
2023-04-11T23:52:38.483Z,39.39
2023-04-11T23:55:08.194Z,39.35
2023-04-11T23:57:36.492Z,39.11
